Time;durP1;ratioP1;P1;durP2;ratioP2;P2;SDS_P1;SDS_P2;PMS_P1;PMS_P2;Temp;Humidity;BMP_temperature;BMP_pressure;BME280_temperature;BME280_humidity;BME280_pressure;Samples;Min_cycle;Max_cycle;Signal;HPM_P1;HPM_P2
2022/10/03 00:02:37;;;;;;;;;7.67;7.67;;;;;13.25;91.93;102226.63;5081543;28;45351;-74
2022/10/03 00:05:23;;;;;;;;;7.33;7.33;;;;;13.24;91.81;102230.31;5081225;28;45333;-74
2022/10/03 00:08:13;;;;;;;;;9.00;9.00;;;;;13.18;91.80;102227.41;5080861;28;46591;-74
2022/10/03 00:10:41;;;;;;;;;11.00;11.00;;;;;13.19;91.95;102232.59;5081233;28;45324;-74
2022/10/03 00:13:18;;;;;;;;;10.67;9.33;;;;;13.18;92.05;102233.59;5081430;28;45660;-74
2022/10/03 00:15:54;;;;;;;;;9.67;9.67;;;;;13.19;91.92;102237.09;5062981;28;47013;-73
2022/10/03 00:18:34;;;;;;;;;11.00;10.67;;;;;13.15;91.81;102227.72;5062958;28;48001;-74
2022/10/03 00:21:09;;;;;;;;;15.00;14.00;;;;;13.13;91.89;102230.53;5062708;28;45335;-74
2022/10/03 00:23:52;;;;;;;;;11.67;9.67;;;;;13.08;91.52;102223.00;5063338;28;45337;-73
2022/10/03 00:26:27;;;;;;;;;9.33;9.33;;;;;13.04;91.71;102223.44;5080711;28;45523;-74
2022/10/03 00:29:20;;;;;;;;;10.33;10.33;;;;;12.99;91.77;102226.59;5069947;28;46199;-74
2022/10/03 00:32:11;;;;;;;;;10.67;10.33;;;;;12.95;91.54;102231.41;5062662;28;45337;-75
2022/10/03 00:34:52;;;;;;;;;11.33;11.00;;;;;12.83;91.82;102224.59;5062962;28;45405;-74
2022/10/03 00:37:26;;;;;;;;;11.33;10.67;;;;;12.86;92.04;102238.50;5062703;28;46430;-75
2022/10/03 00:40:06;;;;;;;;;13.33;12.00;;;;;12.87;91.88;102234.81;5080928;28;46398;-74
2022/10/03 00:42:51;;;;;;;;;11.00;11.00;;;;;12.83;91.81;102238.78;5080754;28;45520;-74
2022/10/03 00:45:44;;;;;;;;;12.67;11.67;;;;;12.80;91.56;102235.59;5062497;28;45398;-74
2022/10/03 00:48:42;;;;;;;;;11.00;10.00;;;;;12.75;91.93;102228.03;5080788;28;45318;-74
2022/10/03 00:51:19;;;;;;;;;11.00;10.00;;;;;12.75;91.77;102234.22;5062410;28;46064;-74
2022/10/03 00:53:58;;;;;;;;;7.00;7.00;;;;;12.66;91.72;102226.31;5062404;28;45311;-74
2022/10/03 00:56:35;;;;;;;;;9.00;9.00;;;;;12.70;91.71;102238.34;5080869;28;45375;-73
2022/10/03 00:59:10;;;;;;;;;10.33;10.33;;;;;12.72;91.60;102244.38;5062245;28;46270;-74
2022/10/03 01:01:40;;;;;;;;;8.33;8.33;;;;;12.65;91.42;102236.13;5080468;28;45422;-74
2022/10/03 01:04:15;;;;;;;;;7.00;6.33;;;;;12.70;91.04;102238.34;5080361;28;45490;-74
2022/10/03 01:07:14;;;;;;;;;10.67;9.33;;;;;12.63;90.52;102222.09;5080476;28;45318;-74
2022/10/03 01:10:00;;;;;;;;;7.67;7.00;;;;;12.63;90.89;102230.09;5066821;28;45653;-73
2022/10/03 01:12:48;;;;;;;;;10.67;9.33;;;;;12.59;90.71;102236.72;5061714;28;47212;-74
2022/10/03 01:15:50;;;;;;;;;9.33;8.33;;;;;12.54;91.07;102242.50;5080261;28;45379;-74
2022/10/03 01:18:28;;;;;;;;;8.00;8.00;;;;;12.48;91.27;102238.63;5067834;28;45270;-74
2022/10/03 01:20:53;;;;;;;;;8.00;8.00;;;;;12.58;91.10;102259.06;5051027;28;45897;-74
2022/10/03 01:23:46;;;;;;;;;3.67;3.67;;;;;12.60;91.77;102249.09;5041700;28;47518;-74
2022/10/03 01:26:36;;;;;;;;;8.00;8.00;;;;;12.62;91.87;102255.94;5059975;28;45418;-74
2022/10/03 01:32:09;;;;;;;;;8.67;8.67;;;;;12.63;92.36;102248.75;5059710;28;45220;-74
2022/10/03 01:34:50;;;;;;;;;7.67;7.67;;;;;12.57;92.61;102241.38;5041775;28;47152;-74
2022/10/03 01:37:26;;;;;;;;;11.00;9.00;;;;;12.61;92.62;102250.75;5059581;28;45732;-74
2022/10/03 01:40:02;;;;;;;;;8.33;8.00;;;;;12.60;93.09;102241.91;5058663;28;45288;-74
2022/10/03 01:42:43;;;;;;;;;9.33;8.33;;;;;12.61;93.12;102245.41;5058127;28;46445;-74
2022/10/03 01:45:30;;;;;;;;;9.00;8.00;;;;;12.67;93.33;102242.16;5057794;28;48597;-74
2022/10/03 01:48:10;;;;;;;;;12.67;9.33;;;;;12.71;93.31;102240.00;5059790;28;45653;-74
2022/10/03 01:51:02;;;;;;;;;12.00;8.67;;;;;12.68;93.48;102222.47;5059718;28;45276;-74
2022/10/03 01:53:41;;;;;;;;;9.00;8.00;;;;;12.74;93.57;102232.56;5058165;28;47139;-75
2022/10/03 01:56:30;;;;;;;;;11.33;9.00;;;;;12.76;93.96;102235.06;5046426;28;45352;-74
2022/10/03 01:59:18;;;;;;;;;10.00;8.33;;;;;12.74;94.34;102232.56;5041046;28;45860;-74
2022/10/03 02:02:16;;;;;;;;;10.33;9.67;;;;;12.75;94.88;102249.38;5058165;28;45410;-74
2022/10/03 02:05:18;;;;;;;;;9.67;8.67;;;;;12.67;94.60;102235.97;5046987;28;45336;-74
2022/10/03 02:08:20;;;;;;;;;10.33;9.00;;;;;12.78;94.73;102237.59;4993511;28;47353;-74
2022/10/03 02:11:47;;;;;;;;;14.33;13.33;;;;;12.82;95.05;102241.63;5059140;28;45437;-74
2022/10/03 02:14:45;;;;;;;;;11.00;11.00;;;;;12.83;95.31;102240.63;5019598;28;45450;-74
2022/10/03 02:17:21;;;;;;;;;12.67;10.67;;;;;12.73;96.51;102222.88;5022622;28;45511;-74
2022/10/03 02:20:02;;;;;;;;;10.33;10.33;;;;;12.84;96.01;102239.66;5058884;28;46577;-74
2022/10/03 02:22:32;;;;;;;;;12.00;12.00;;;;;12.81;95.74;102214.09;5058965;28;45379;-74
2022/10/03 02:25:19;;;;;;;;;11.00;11.00;;;;;12.90;95.66;102220.34;5044351;28;45344;-74
2022/10/03 02:28:02;;;;;;;;;11.00;11.00;;;;;12.94;95.39;102224.41;5058602;28;45390;-73
2022/10/03 02:30:49;;;;;;;;;13.67;13.67;;;;;13.00;95.42;102229.09;5058460;28;45547;-74
2022/10/03 02:33:26;;;;;;;;;14.67;12.67;;;;;13.03;95.34;102217.28;5058854;28;45380;-74
2022/10/03 02:36:10;;;;;;;;;16.00;13.00;;;;;13.02;96.63;102230.78;5059229;28;45340;-74
2022/10/03 02:38:55;;;;;;;;;12.00;10.00;;;;;13.00;96.82;102226.41;5058698;28;45367;-74
2022/10/03 02:41:58;;;;;;;;;14.67;13.33;;;;;13.03;97.32;102227.13;5040652;28;47381;-74
2022/10/03 02:44:45;;;;;;;;;11.33;11.33;;;;;13.00;97.36;102237.09;5058712;28;45350;-74
2022/10/03 02:47:31;;;;;;;;;14.33;12.67;;;;;13.02;96.96;102241.47;5058789;28;45363;-74
2022/10/03 02:50:18;;;;;;;;;12.00;11.00;;;;;13.03;96.94;102237.78;5059424;28;45599;-74
2022/10/03 02:53:21;;;;;;;;;10.33;10.33;;;;;13.06;96.44;102226.81;5049094;28;47277;-74
2022/10/03 02:56:29;;;;;;;;;20.33;15.33;;;;;13.15;96.30;102241.91;5062348;28;45317;-75
2022/10/03 02:59:32;;;;;;;;;12.67;12.00;;;;;13.18;95.89;102240.75;5062325;28;45355;-74
2022/10/03 03:02:29;;;;;;;;;13.33;12.67;;;;;13.21;95.47;102235.97;5043945;28;45737;-74
2022/10/03 03:05:15;;;;;;;;;11.33;10.00;;;;;13.24;95.73;102237.47;5040567;28;46646;-74
2022/10/03 03:08:12;;;;;;;;;10.00;10.00;;;;;13.26;95.53;102238.16;5039759;28;45241;-75
2022/10/03 03:11:19;;;;;;;;;10.00;10.00;;;;;13.28;95.41;102235.31;5056935;28;45365;-74
2022/10/03 03:14:18;;;;;;;;;9.33;9.33;;;;;13.32;95.48;102237.50;5007711;28;45740;-74
2022/10/03 03:16:56;;;;;;;;;11.00;9.67;;;;;13.35;95.21;102239.06;5032677;28;48536;-74
2022/10/03 03:19:50;;;;;;;;;11.00;11.00;;;;;13.36;95.24;102238.91;5061801;28;45344;-75
2022/10/03 03:22:45;;;;;;;;;9.00;9.00;;;;;13.43;95.42;102241.78;5061968;28;45431;-74
2022/10/03 03:25:23;;;;;;;;;9.33;9.33;;;;;13.47;95.59;102236.97;5050370;28;45422;-74
2022/10/03 03:28:20;;;;;;;;;9.00;9.00;;;;;13.42;95.74;102226.75;5062075;28;45669;-74
2022/10/03 03:31:19;;;;;;;;;13.00;12.33;;;;;13.49;95.50;102233.16;5039885;28;46192;-74
2022/10/03 03:34:17;;;;;;;;;10.00;10.00;;;;;13.49;96.31;102221.59;5060537;28;45304;-74
2022/10/03 03:36:53;;;;;;;;;9.33;9.33;;;;;13.50;95.58;102228.69;5060450;28;45321;-74
2022/10/03 03:39:50;;;;;;;;;12.67;11.33;;;;;13.57;95.66;102237.72;5061780;28;46300;-74
2022/10/03 03:43:03;;;;;;;;;13.00;11.00;;;;;13.53;95.65;102219.50;5060111;28;45727;-75
2022/10/03 03:45:40;;;;;;;;;12.00;11.67;;;;;13.60;95.66;102236.56;4996890;28;45269;-74
2022/10/03 03:48:26;;;;;;;;;8.67;8.67;;;;;13.56;95.83;102219.19;5061677;28;45481;-74
2022/10/03 03:51:32;;;;;;;;;12.00;10.33;;;;;13.63;95.89;102231.75;5043194;28;48172;-74
2022/10/03 03:54:03;;;;;;;;;16.67;12.33;;;;;13.59;96.24;102232.22;5061195;28;45348;-75
2022/10/03 03:56:44;;;;;;;;;12.00;12.00;;;;;13.58;96.31;102233.22;5043214;28;45319;-75
2022/10/03 03:59:46;;;;;;;;;15.00;11.67;;;;;13.56;96.13;102227.19;5057890;28;47253;-74
2022/10/03 04:02:44;;;;;;;;;11.33;10.33;;;;;13.56;96.05;102229.88;5060167;28;45461;-74
2022/10/03 04:05:25;;;;;;;;;10.33;10.33;;;;;13.54;96.75;102231.84;5061242;28;45220;-74
2022/10/03 04:08:11;;;;;;;;;11.00;11.00;;;;;13.52;97.37;102231.19;5061120;28;45255;-74
2022/10/03 04:11:16;;;;;;;;;9.00;9.00;;;;;13.48;97.28;102230.63;5061036;28;45380;-74
2022/10/03 04:14:01;;;;;;;;;7.67;7.67;;;;;13.47;96.66;102235.13;5060792;28;47273;-75
2022/10/03 04:19:35;;;;;;;;;9.67;9.67;;;;;13.43;98.71;102228.41;5061042;28;45347;-74
2022/10/03 04:22:37;;;;;;;;;8.00;7.33;;;;;13.35;98.35;102231.88;5062415;28;46602;-74
2022/10/03 04:25:16;;;;;;;;;6.33;5.33;;;;;13.38;97.87;102236.91;5059526;28;47187;-75
2022/10/03 04:28:01;;;;;;;;;6.00;6.00;;;;;13.40;97.81;102234.06;5054329;28;45423;-74
2022/10/03 04:30:44;;;;;;;;;7.00;7.00;;;;;13.40;97.37;102239.41;5080872;28;45608;-75
2022/10/03 04:33:43;;;;;;;;;7.67;6.33;;;;;13.37;97.34;102245.91;5080876;28;45323;-74
2022/10/03 04:36:47;;;;;;;;;5.67;5.67;;;;;13.34;96.55;102240.03;5072465;28;47589;-75
2022/10/03 04:39:30;;;;;;;;;7.33;5.67;;;;;13.30;99.13;102249.34;5050584;28;45957;-74
2022/10/03 04:42:06;;;;;;;;;7.00;6.33;;;;;13.25;96.72;102252.47;5080623;28;45288;-75
2022/10/03 04:44:58;;;;;;;;;6.67;6.67;;;;;13.18;96.43;102244.28;5063568;28;45338;-74
2022/10/03 04:47:37;;;;;;;;;5.67;5.67;;;;;13.15;96.30;102233.06;5062948;28;46536;-75
2022/10/03 04:50:11;;;;;;;;;9.33;7.33;;;;;13.20;96.40;102241.44;5080970;28;45455;-75
2022/10/03 04:52:50;;;;;;;;;8.33;7.67;;;;;13.21;96.28;102235.97;5081165;28;45330;-74
2022/10/03 04:55:41;;;;;;;;;9.00;9.00;;;;;13.19;96.92;102232.59;5080645;28;45538;-74
2022/10/03 04:58:35;;;;;;;;;7.00;7.00;;;;;13.16;96.56;102240.91;5080379;28;45701;-75
2022/10/03 05:01:11;;;;;;;;;7.33;7.33;;;;;13.19;96.98;102237.09;5079939;28;45279;-74
2022/10/03 05:04:09;;;;;;;;;9.67;8.67;;;;;13.20;96.97;102233.44;5079423;28;45433;-74
2022/10/03 05:07:03;;;;;;;;;9.00;9.00;;;;;13.20;96.65;102234.25;5068094;28;46902;-74
2022/10/03 05:09:53;;;;;;;;;10.33;10.00;;;;;13.26;96.70;102247.00;5080308;27;45637;-74
2022/10/03 05:12:38;;;;;;;;;7.33;7.00;;;;;13.22;97.20;102239.44;5061825;28;45289;-75
2022/10/03 05:15:10;;;;;;;;;11.00;10.00;;;;;13.32;97.14;102244.72;5080418;28;45337;-74
2022/10/03 05:18:05;;;;;;;;;10.67;10.67;;;;;13.37;96.89;102242.41;5061959;28;46970;-74
2022/10/03 05:21:04;;;;;;;;;11.33;9.67;;;;;13.37;97.22;102248.59;5072692;28;46968;-75
2022/10/03 05:24:01;;;;;;;;;11.33;11.33;;;;;13.44;97.17;102247.97;5048178;28;45445;-75
2022/10/03 05:26:42;;;;;;;;;14.67;13.67;;;;;13.45;96.97;102255.81;5059663;28;45434;-74
2022/10/03 05:29:26;;;;;;;;;12.00;11.00;;;;;13.45;96.58;102254.97;5057221;28;45376;-74
2022/10/03 05:32:29;;;;;;;;;12.00;11.67;;;;;13.47;96.53;102261.81;5059513;28;45385;-74
2022/10/03 05:35:33;;;;;;;;;12.00;12.00;;;;;13.50;96.70;102260.72;5059629;28;45478;-74
2022/10/03 05:38:13;;;;;;;;;16.33;15.00;;;;;13.50;96.93;102264.22;5040963;28;45392;-74
2022/10/03 05:40:46;;;;;;;;;14.67;13.33;;;;;13.55;96.96;102263.75;5038234;28;46084;-74
2022/10/03 05:43:38;;;;;;;;;14.67;14.33;;;;;13.59;97.32;102266.97;5050801;28;47331;-75
2022/10/03 05:46:41;;;;;;;;;14.00;14.00;;;;;13.62;97.03;102256.78;5030043;28;45340;-74
2022/10/03 05:49:34;;;;;;;;;17.00;14.00;;;;;13.67;97.04;102264.31;5037385;28;45493;-75
2022/10/03 05:52:40;;;;;;;;;13.00;11.67;;;;;13.69;96.91;102272.19;5059409;28;45189;-75
2022/10/03 05:55:41;;;;;;;;;14.67;12.67;;;;;13.71;97.02;102273.69;5059487;28;45350;-74
2022/10/03 05:58:28;;;;;;;;;15.00;15.00;;;;;13.72;96.83;102271.88;5048755;28;45393;-74
2022/10/03 06:01:07;;;;;;;;;12.67;12.67;;;;;13.69;96.51;102253.47;5059199;28;45476;-75
2022/10/03 06:03:51;;;;;;;;;14.00;13.33;;;;;13.74;96.36;102264.56;5049782;28;45390;-74
2022/10/03 06:06:25;;;;;;;;;13.67;13.67;;;;;13.72;96.40;102250.50;5027999;28;47654;-74
2022/10/03 06:09:22;;;;;;;;;15.00;15.00;;;;;13.76;96.78;102258.03;5053223;28;45226;-74
2022/10/03 06:12:09;;;;;;;;;15.00;13.67;;;;;13.70;96.61;102250.66;5049455;28;45449;-74
2022/10/03 06:14:40;;;;;;;;;15.67;14.33;;;;;13.79;96.72;102264.03;5058997;28;45319;-74
2022/10/03 06:17:45;;;;;;;;;13.33;13.33;;;;;13.81;96.96;102260.25;5041073;28;47492;-76
2022/10/03 06:21:03;;;;;;;;;16.67;14.67;;;;;13.82;96.57;102261.06;5045250;28;46051;-74
2022/10/03 06:23:46;;;;;;;;;16.00;15.00;;;;;13.82;96.71;102261.06;5036294;28;45382;-75
2022/10/03 06:26:14;;;;;;;;;14.00;13.00;;;;;13.84;96.81;102259.09;5078546;28;45288;-74
2022/10/03 06:28:58;;;;;;;;;15.00;13.67;;;;;13.84;96.35;102256.41;5076037;28;46281;-74
2022/10/03 06:31:55;;;;;;;;;21.67;20.00;;;;;13.79;96.19;102248.00;5060830;28;45383;-74
2022/10/03 06:34:30;;;;;;;;;15.67;14.67;;;;;13.78;96.37;102251.69;5078565;27;45338;-74
2022/10/03 06:37:08;;;;;;;;;15.00;14.33;;;;;13.71;96.15;102252.31;5079004;28;45484;-74
2022/10/03 06:39:43;;;;;;;;;15.33;15.33;;;;;13.76;96.00;102250.03;5060624;28;46957;-74
2022/10/03 06:42:23;;;;;;;;;15.67;15.67;;;;;13.83;96.58;102260.09;5060691;28;45962;-74
2022/10/03 06:45:08;;;;;;;;;16.67;16.33;;;;;13.84;96.92;102262.59;5060854;28;45402;-74
2022/10/03 06:47:55;;;;;;;;;17.00;16.33;;;;;13.88;96.57;102253.25;5060954;28;46097;-75
2022/10/03 06:51:03;;;;;;;;;20.33;14.00;;;;;13.80;96.58;102257.72;5078819;28;45580;-74
2022/10/03 06:53:32;;;;;;;;;17.00;17.00;;;;;13.83;96.16;102266.25;5060706;28;45347;-74
2022/10/03 06:56:18;;;;;;;;;20.33;16.67;;;;;13.86;96.14;102270.47;5059433;28;45452;-73
2022/10/03 06:59:34;;;;;;;;;15.00;15.00;;;;;13.89;96.44;102270.16;5068477;28;45413;-73
2022/10/03 07:02:36;;;;;;;;;20.00;20.00;;;;;13.94;96.64;102270.50;5033545;28;45434;-74
2022/10/03 07:05:21;;;;;;;;;19.00;16.00;;;;;13.97;96.38;102278.19;5062787;27;45385;-76
2022/10/03 07:07:52;;;;;;;;;17.67;17.33;;;;;13.98;96.16;102277.19;5075508;28;45298;-77
2022/10/03 07:10:36;;;;;;;;;21.00;17.00;;;;;13.99;96.24;102281.56;5076919;28;46362;-76
2022/10/03 07:13:11;;;;;;;;;21.67;20.00;;;;;13.99;95.58;102272.69;5070057;28;47185;-75
2022/10/03 07:16:16;;;;;;;;;20.00;17.33;;;;;13.92;96.26;102260.97;5078754;28;45351;-77
2022/10/03 07:18:56;;;;;;;;;20.33;18.00;;;;;13.94;95.92;102262.47;5078575;28;45867;-76
2022/10/03 07:22:00;;;;;;;;;20.33;20.00;;;;;14.00;96.07;102275.19;5045612;28;46449;-76
2022/10/03 07:24:44;;;;;;;;;22.33;19.67;;;;;14.03;95.87;102286.59;5050353;28;47417;-75
2022/10/03 07:27:13;;;;;;;;;22.00;20.33;;;;;13.99;95.64;102292.25;5058031;28;45288;-75
2022/10/03 07:29:58;;;;;;;;;24.67;24.00;;;;;13.92;95.62;102288.50;5057980;28;45405;-74
2022/10/03 07:33:02;;;;;;;;;21.67;19.67;;;;;13.96;95.56;102303.25;5047812;28;46211;-74
2022/10/03 07:38:58;;;;;;;;;20.00;18.67;;;;;14.04;95.98;102294.44;5037719;28;45292;-74
2022/10/03 07:42:05;;;;;;;;;23.33;22.67;;;;;14.14;96.15;102305.00;5043212;28;45333;-74
2022/10/03 07:44:39;;;;;;;;;22.67;22.00;;;;;14.22;96.64;102296.19;5041774;28;45336;-74
2022/10/03 07:47:32;;;;;;;;;18.67;18.33;;;;;14.29;96.18;102305.25;5061247;28;45456;-75
2022/10/03 07:50:36;;;;;;;;;24.67;23.67;;;;;14.36;96.05;102305.44;5043380;28;45490;-73
2022/10/03 07:53:20;;;;;;;;;24.00;21.67;;;;;14.41;95.96;102303.13;5043512;28;45339;-73
2022/10/03 07:56:24;;;;;;;;;21.00;20.67;;;;;14.48;95.58;102311.31;5060637;28;45292;-75
2022/10/03 07:59:14;;;;;;;;;20.00;20.00;;;;;14.48;94.84;102312.16;5060771;28;45524;-75
2022/10/03 08:01:53;;;;;;;;;21.67;21.33;;;;;14.46;94.26;102307.97;5051804;28;45302;-77
2022/10/03 08:04:46;;;;;;;;;20.33;19.33;;;;;14.41;94.38;102308.47;5061341;28;45451;-76
2022/10/03 08:07:24;;;;;;;;;20.00;20.00;;;;;14.49;94.06;102329.06;5060495;28;45447;-78
2022/10/03 08:10:28;;;;;;;;;20.00;17.00;;;;;14.51;94.14;102330.56;5059960;28;46467;-78
2022/10/03 08:13:30;;;;;;;;;21.00;19.33;;;;;14.56;93.95;102329.25;5019376;28;45486;-77
2022/10/03 08:16:41;;;;;;;;;18.67;18.33;;;;;14.59;93.76;102328.91;5061331;28;45386;-76
2022/10/03 08:19:25;;;;;;;;;25.67;24.67;;;;;14.63;93.70;102330.25;5010262;28;45462;-76
2022/10/03 08:22:24;;;;;;;;;22.33;22.33;;;;;14.69;93.61;102323.44;4999019;28;47454;-75
2022/10/03 08:25:11;;;;;;;;;16.67;16.67;;;;;14.72;93.38;102320.41;5049392;28;45388;-77
2022/10/03 08:27:57;;;;;;;;;20.33;20.33;;;;;14.73;92.90;102330.97;5081350;28;45303;-76
2022/10/03 08:31:01;;;;;;;;;24.67;22.00;;;;;14.74;93.20;102332.66;5080228;28;45440;-76
2022/10/03 08:34:14;;;;;;;;;24.00;24.00;;;;;14.82;93.35;102341.75;5039490;28;47081;-77
2022/10/03 08:36:52;;;;;;;;;19.00;19.00;;;;;14.88;93.09;102339.22;5034974;28;45462;-79
2022/10/03 08:39:56;;;;;;;;;20.00;20.00;;;;;14.92;93.16;102329.03;5067081;28;45472;-78
2022/10/03 08:42:40;;;;;;;;;21.33;20.00;;;;;15.00;93.42;102326.38;5064690;28;45369;-79
2022/10/03 08:45:24;;;;;;;;;24.00;22.00;;;;;15.00;92.54;102331.72;5080303;28;45464;-78
2022/10/03 08:48:13;;;;;;;;;17.67;16.67;;;;;14.97;92.37;102315.97;5079123;28;45331;-79
2022/10/03 08:50:54;;;;;;;;;22.33;19.33;;;;;15.05;92.35;102315.16;5062609;28;45462;-79
2022/10/03 08:53:40;;;;;;;;;17.33;15.67;;;;;15.09;91.98;102319.19;5080491;28;45483;-78
2022/10/03 08:56:38;;;;;;;;;18.00;18.00;;;;;15.10;91.86;102312.00;5066991;28;45337;-79
2022/10/03 08:59:43;;;;;;;;;16.00;15.67;;;;;15.17;91.69;102315.69;5059194;28;45404;-78
2022/10/03 09:02:33;;;;;;;;;21.00;20.67;;;;;15.19;91.57;102312.84;5073356;28;45634;-79
2022/10/03 09:05:41;;;;;;;;;17.33;17.00;;;;;15.23;91.58;102300.78;5081898;28;45291;-79
2022/10/03 09:08:21;;;;;;;;;18.33;17.00;;;;;15.37;91.78;102296.59;5084860;28;45678;-79
2022/10/03 09:10:53;;;;;;;;;19.67;18.00;;;;;15.47;91.54;102301.81;5062798;28;45414;-79
2022/10/03 09:13:21;;;;;;;;;17.67;17.33;;;;;15.49;91.05;102300.63;5081765;28;45417;-77
2022/10/03 09:16:19;;;;;;;;;21.00;20.67;;;;;15.52;90.42;102300.28;5086143;28;45503;-79
2022/10/03 09:19:16;;;;;;;;;19.67;18.67;;;;;15.51;90.36;102306.63;5063878;28;48376;-82
2022/10/03 09:22:08;;;;;;;;;19.00;16.67;;;;;15.58;90.29;102314.84;5096508;27;45622;-82
2022/10/03 09:24:39;;;;;;;;;20.33;18.00;;;;;15.59;89.63;102313.00;5078174;28;45633;-82
2022/10/03 09:27:17;;;;;;;;;49.75;38.50;;;;;15.56;89.50;102311.47;5082382;28;45488;-80
2022/10/03 09:29:56;;;;;;;;;26.33;26.33;;;;;15.52;89.36;102319.03;5082071;28;45313;-80
2022/10/03 09:32:52;;;;;;;;;43.33;35.67;;;;;15.55;89.68;102319.69;5083847;28;45317;-78
2022/10/03 09:35:53;;;;;;;;;26.33;25.67;;;;;15.52;89.60;102316.38;5061663;28;45484;-76
2022/10/03 09:38:31;;;;;;;;;25.67;25.00;;;;;15.61;89.69;102324.38;5086137;28;45235;-78
2022/10/03 09:41:24;;;;;;;;;48.25;39.75;;;;;15.66;89.38;102335.44;5079624;28;45299;-76
2022/10/03 09:44:05;;;;;;;;;17.33;17.33;;;;;15.69;89.06;102334.25;5061177;28;45643;-77
2022/10/03 09:47:21;;;;;;;;;17.00;17.00;;;;;15.74;88.61;102342.63;5080900;28;45493;-78
2022/10/03 09:50:00;;;;;;;;;20.00;19.00;;;;;15.75;88.45;102337.09;5078766;28;45487;-80
2022/10/03 09:52:28;;;;;;;;;21.00;19.67;;;;;15.77;88.13;102337.75;5080396;28;45351;-79
2022/10/03 09:55:16;;;;;;;;;22.33;19.67;;;;;15.82;87.50;102333.72;5080037;28;45244;-75
2022/10/03 09:57:51;;;;;;;;;23.00;19.33;;;;;15.77;87.55;102319.00;5080099;28;45302;-77
2022/10/03 10:00:16;;;;;;;;;22.00;21.33;;;;;15.84;87.01;102326.38;5078841;28;45306;-75
2022/10/03 10:03:36;;;;;;;;;16.00;16.00;;;;;15.79;86.53;102318.81;5079914;28;46523;-75
2022/10/03 10:06:21;;;;;;;;;18.00;18.00;;;;;15.90;86.46;102318.47;5079856;28;45355;-74
2022/10/03 10:09:17;;;;;;;;;18.33;17.67;;;;;15.99;86.71;102319.34;5079972;28;45342;-75
2022/10/03 10:12:11;;;;;;;;;16.67;16.67;;;;;16.07;86.27;102312.25;5061556;28;46075;-74
2022/10/03 10:14:59;;;;;;;;;19.33;19.33;;;;;16.11;85.63;102302.84;5059082;28;47576;-74
2022/10/03 10:17:49;;;;;;;;;18.00;16.67;;;;;16.20;85.07;102300.97;5087238;27;45378;-76
2022/10/03 10:20:26;;;;;;;;;19.00;18.33;;;;;16.27;86.00;102300.13;5065780;28;45283;-76
2022/10/03 10:23:29;;;;;;;;;16.33;16.33;;;;;16.40;85.94;102304.06;5057895;28;47380;-78
2022/10/03 10:26:00;;;;;;;;;20.00;19.00;;;;;16.51;86.08;102303.69;5044703;28;48404;-77
2022/10/03 10:28:58;;;;;;;;;20.33;20.00;;;;;16.60;84.94;102303.63;5073287;28;45361;-79
2022/10/03 10:31:29;;;;;;;;;20.00;17.00;;;;;16.70;85.39;102308.78;5075432;28;45378;-78
2022/10/03 10:34:25;;;;;;;;;19.00;19.00;;;;;16.73;84.36;102314.63;5079745;28;45267;-78
2022/10/03 10:37:32;;;;;;;;;24.00;24.00;;;;;16.68;84.02;102302.75;5068840;28;45382;-80
2022/10/03 10:40:22;;;;;;;;;22.33;19.67;;;;;16.69;83.82;102317.84;5066358;28;45330;-80
2022/10/03 10:43:22;;;;;;;;;24.00;23.67;;;;;16.68;83.62;102319.72;5061814;28;45323;-79
2022/10/03 10:46:17;;;;;;;;;25.00;23.33;;;;;16.68;83.81;102306.28;5060926;28;45383;-78
2022/10/03 10:49:04;;;;;;;;;23.00;23.00;;;;;16.70;83.28;102303.44;5061162;28;46199;-78
2022/10/03 10:51:46;;;;;;;;;22.67;21.67;;;;;16.73;83.93;102293.16;5061008;28;45378;-80
2022/10/03 10:54:36;;;;;;;;;22.00;22.00;;;;;16.81;84.02;102289.59;5077561;27;45323;-77
2022/10/03 10:57:26;;;;;;;;;21.67;21.33;;;;;16.89;84.07;102286.84;5078760;28;45334;-79
2022/10/03 11:00:14;;;;;;;;;20.33;20.33;;;;;17.00;84.12;102292.81;5074368;28;45319;-79
2022/10/03 11:03:21;;;;;;;;;19.00;19.00;;;;;17.09;82.46;102290.94;5056142;28;45931;-77
2022/10/03 11:05:59;;;;;;;;;21.67;21.33;;;;;17.14;82.23;102297.44;5039297;28;45510;-77
2022/10/03 11:08:48;;;;;;;;;22.00;20.00;;;;;17.15;81.64;102304.47;5070512;28;45381;-78
2022/10/03 11:12:00;;;;;;;;;21.67;21.00;;;;;17.13;81.44;102308.34;5078188;28;45549;-79
2022/10/03 11:14:53;;;;;;;;;20.33;20.33;;;;;17.22;81.41;102298.38;5084105;28;45366;-77
2022/10/03 11:17:25;;;;;;;;;22.00;22.00;;;;;17.24;81.32;102296.34;5063208;28;45371;-80
2022/10/03 11:20:28;;;;;;;;;17.33;17.33;;;;;17.28;81.75;102301.19;5063303;28;46700;-79
2022/10/03 11:23:25;;;;;;;;;21.00;21.00;;;;;17.36;81.74;102289.50;5072703;28;46801;-79
2022/10/03 11:26:40;;;;;;;;;45.00;37.00;;;;;17.34;80.90;102288.03;5081018;28;45721;-78
2022/10/03 11:29:39;;;;;;;;;44.33;35.33;;;;;17.40;81.04;102290.84;5075385;28;45375;-78
2022/10/03 11:32:14;;;;;;;;;21.67;21.33;;;;;17.47;81.32;102288.25;5081817;28;45393;-77
2022/10/03 11:35:13;;;;;;;;;26.67;25.67;;;;;17.50;81.08;102282.50;5082411;28;45400;-77
2022/10/03 11:38:19;;;;;;;;;27.67;27.67;;;;;17.52;79.72;102282.31;5085132;28;45263;-77
2022/10/03 11:41:16;;;;;;;;;21.67;21.33;;;;;17.53;79.24;102283.97;5082664;28;45473;-77
2022/10/03 11:43:50;;;;;;;;;23.00;22.67;;;;;17.55;78.83;102287.34;5082376;28;45443;-77
2022/10/03 11:46:49;;;;;;;;;18.67;18.00;;;;;17.56;78.82;102274.72;5083156;28;46259;-78
2022/10/03 11:49:29;;;;;;;;;22.00;20.00;;;;;17.65;80.00;102282.53;5079205;28;45401;-78
2022/10/03 11:52:03;;;;;;;;;22.67;20.00;;;;;17.72;79.52;102279.91;5065067;28;45316;-77
2022/10/03 11:54:34;;;;;;;;;22.33;22.33;;;;;17.68;78.30;102284.00;5081985;28;45799;-77
2022/10/03 11:57:08;;;;;;;;;20.67;20.67;;;;;17.61;78.05;102275.84;5080775;28;45457;-77
2022/10/03 11:59:49;;;;;;;;;19.67;18.67;;;;;17.62;78.55;102284.72;5077394;28;45713;-77
2022/10/03 12:02:44;;;;;;;;;22.00;22.00;;;;;17.53;78.63;102268.69;5081620;28;45278;-78
2022/10/03 12:05:44;;;;;;;;;22.00;21.00;;;;;17.67;79.41;102280.50;5081744;28;45434;-75
2022/10/03 12:11:41;;;;;;;;;22.00;22.00;;;;;17.74;78.07;102283.28;5026343;28;45344;-78
2022/10/03 12:14:43;;;;;;;;;23.33;23.33;;;;;17.73;77.70;102270.84;5080956;28;45244;-80
2022/10/03 12:17:22;;;;;;;;;20.67;20.67;;;;;17.77;77.48;102268.63;5064784;28;45656;-76
2022/10/03 12:20:17;;;;;;;;;26.67;26.33;;;;;17.87;77.44;102276.41;5076421;28;47221;-78
2022/10/03 12:23:16;;;;;;;;;21.33;19.00;;;;;17.92;76.48;102274.00;5064523;28;45366;-78
2022/10/03 12:25:44;;;;;;;;;26.33;24.33;;;;;17.89;77.01;102259.06;5080906;28;45402;-78
2022/10/03 12:28:28;;;;;;;;;25.00;25.00;;;;;17.91;77.46;102265.09;5078729;28;45561;-77
2022/10/03 12:31:06;;;;;;;;;21.67;21.00;;;;;18.00;77.14;102260.47;5061768;28;45385;-78
2022/10/03 12:33:53;;;;;;;;;25.33;22.67;;;;;18.02;76.53;102266.47;5081403;28;45334;-78
2022/10/03 12:36:18;;;;;;;;;21.00;21.00;;;;;18.04;75.59;102266.28;5050376;28;45394;-79
2022/10/03 12:39:21;;;;;;;;;18.33;17.67;;;;;18.09;75.58;102266.56;5080682;28;45477;-76
2022/10/03 12:42:13;;;;;;;;;16.00;16.00;;;;;18.11;74.76;102261.84;5080175;28;46637;-77
2022/10/03 12:44:55;;;;;;;;;21.67;20.67;;;;;18.10;74.65;102262.88;5034938;28;45305;-78
2022/10/03 12:47:36;;;;;;;;;20.67;20.67;;;;;18.18;74.30;102270.03;5076121;28;45299;-77
2022/10/03 12:50:21;;;;;;;;;20.67;19.00;;;;;18.22;74.38;102260.53;5081460;28;45367;-77
2022/10/03 12:53:13;;;;;;;;;22.33;21.00;;;;;18.25;73.36;102244.03;5080909;28;45281;-77
2022/10/03 12:56:05;;;;;;;;;19.33;19.33;;;;;18.35;74.04;102242.88;5065033;28;45399;-77
2022/10/03 12:58:55;;;;;;;;;20.00;19.33;;;;;18.37;73.90;102238.13;5081414;28;45311;-76
2022/10/03 13:01:38;;;;;;;;;24.00;22.00;;;;;18.39;73.45;102238.78;5083496;28;45166;-77